createdAt,value
2017-08-16T00:00:22.912Z,971.6
2017-08-16T00:01:24.573Z,971.5
2017-08-16T00:02:26.236Z,971.6
2017-08-16T00:03:27.902Z,971.7
2017-08-16T00:04:29.563Z,971.7
2017-08-16T00:05:31.250Z,971.7
2017-08-16T00:06:32.916Z,971.7
2017-08-16T00:07:34.580Z,971.7
2017-08-16T00:08:36.236Z,971.8
2017-08-16T00:09:37.905Z,971.9
2017-08-16T00:10:39.561Z,971.8
2017-08-16T00:11:41.219Z,971.9
2017-08-16T00:12:42.879Z,971.8
2017-08-16T00:13:44.550Z,971.8
2017-08-16T00:14:46.219Z,971.8
2017-08-16T00:15:47.872Z,971.7
2017-08-16T00:16:49.533Z,971.7
2017-08-16T00:17:51.190Z,971.7
2017-08-16T00:18:52.851Z,971.7
2017-08-16T00:19:54.513Z,971.7
2017-08-16T00:20:56.180Z,971.7
2017-08-16T00:21:58.724Z,971.7
2017-08-16T00:23:00.379Z,971.7
2017-08-16T00:24:02.042Z,971.6
2017-08-16T00:25:03.697Z,971.6
2017-08-16T00:26:05.366Z,971.6
2017-08-16T00:27:07.027Z,971.6
2017-08-16T00:28:08.694Z,971.6
2017-08-16T00:29:10.349Z,971.6
2017-08-16T00:30:12.007Z,971.7
2017-08-16T00:31:13.664Z,971.8
2017-08-16T00:32:15.348Z,971.8
2017-08-16T00:33:17.010Z,971.8
2017-08-16T00:34:18.669Z,971.8
2017-08-16T00:35:20.328Z,971.7
2017-08-16T00:36:21.991Z,971.7
2017-08-16T00:37:23.646Z,971.6
2017-08-16T00:38:25.300Z,971.6
2017-08-16T00:39:26.954Z,971.6
2017-08-16T00:40:28.623Z,971.6
2017-08-16T00:41:30.287Z,971.6
2017-08-16T00:42:31.945Z,971.6
2017-08-16T00:43:33.614Z,971.6
2017-08-16T00:44:35.270Z,971.6
2017-08-16T00:45:36.925Z,971.6
2017-08-16T00:46:38.589Z,971.5
2017-08-16T00:47:40.245Z,971.5
2017-08-16T00:48:41.898Z,971.6
2017-08-16T00:49:43.555Z,971.6
2017-08-16T00:50:45.221Z,971.6
2017-08-16T00:51:46.917Z,971.6
2017-08-16T00:52:48.573Z,971.6
2017-08-16T00:53:50.232Z,971.6
2017-08-16T00:54:51.882Z,971.6
2017-08-16T00:55:53.559Z,971.6
2017-08-16T00:56:55.205Z,971.5
2017-08-16T00:57:56.869Z,971.6
2017-08-16T00:58:58.534Z,971.6
2017-08-16T01:00:00.186Z,971.6
2017-08-16T01:01:01.846Z,971.5
2017-08-16T01:02:03.508Z,971.5
2017-08-16T01:03:05.168Z,971.5
2017-08-16T01:04:06.826Z,971.4
2017-08-16T01:05:08.491Z,971.5
2017-08-16T01:06:10.173Z,971.5
2017-08-16T01:07:11.802Z,971.5
2017-08-16T01:08:13.472Z,971.5
2017-08-16T01:09:15.151Z,971.6
2017-08-16T01:10:16.810Z,971.5
2017-08-16T01:11:18.479Z,971.5
2017-08-16T01:12:20.129Z,971.6
2017-08-16T01:13:21.781Z,971.6
2017-08-16T01:14:23.441Z,971.6
2017-08-16T01:15:25.100Z,971.6
2017-08-16T01:16:26.765Z,971.7
2017-08-16T01:17:28.423Z,971.7
2017-08-16T01:18:30.081Z,971.7
2017-08-16T01:19:31.737Z,971.8
2017-08-16T01:20:33.396Z,971.8
2017-08-16T01:21:35.052Z,971.8
2017-08-16T01:22:36.712Z,971.9
2017-08-16T01:23:38.368Z,971.9
2017-08-16T01:24:40.031Z,971.8
2017-08-16T01:25:41.691Z,971.9
2017-08-16T01:26:43.348Z,972.0
2017-08-16T01:27:44.998Z,972.0
2017-08-16T01:28:46.664Z,972.0
2017-08-16T01:29:48.328Z,972.0
2017-08-16T01:30:49.993Z,972.1
2017-08-16T01:31:51.648Z,972.1
2017-08-16T01:32:53.311Z,972.0
2017-08-16T01:33:54.972Z,972.0
2017-08-16T01:34:56.635Z,972.0
2017-08-16T01:35:58.293Z,971.9
2017-08-16T01:36:59.952Z,971.9
2017-08-16T01:38:01.610Z,971.9
2017-08-16T01:39:03.278Z,971.8
2017-08-16T01:40:04.929Z,971.9
2017-08-16T01:41:06.592Z,971.8
2017-08-16T01:42:08.247Z,971.8
2017-08-16T01:43:09.911Z,971.8
2017-08-16T01:44:11.566Z,971.8
2017-08-16T01:45:13.227Z,971.8
2017-08-16T01:46:14.889Z,971.8
2017-08-16T01:47:16.551Z,971.8
2017-08-16T01:48:18.212Z,971.8
2017-08-16T01:49:19.865Z,971.8
2017-08-16T01:50:21.530Z,971.8
2017-08-16T01:51:23.188Z,971.8
2017-08-16T01:52:24.877Z,971.8
2017-08-16T01:53:26.542Z,971.8
2017-08-16T01:54:28.199Z,971.8
2017-08-16T01:55:29.858Z,971.8
2017-08-16T01:56:31.516Z,971.8
2017-08-16T01:57:33.172Z,971.8
2017-08-16T01:58:34.865Z,971.8
2017-08-16T01:59:36.487Z,971.7
2017-08-16T02:00:38.150Z,971.7
2017-08-16T02:01:39.812Z,971.7
2017-08-16T02:02:41.470Z,971.7
2017-08-16T02:03:43.131Z,971.7
2017-08-16T02:04:44.790Z,971.8
2017-08-16T02:05:46.453Z,971.8
2017-08-16T02:06:48.123Z,971.8
2017-08-16T02:07:49.787Z,971.8
2017-08-16T02:08:51.449Z,971.8
2017-08-16T02:09:53.113Z,971.8
2017-08-16T02:10:54.765Z,971.8
2017-08-16T02:11:56.423Z,971.8
2017-08-16T02:12:58.078Z,971.9
2017-08-16T02:13:59.738Z,971.9
2017-08-16T02:15:01.397Z,971.9
2017-08-16T02:16:03.064Z,971.9
2017-08-16T02:17:04.729Z,971.9
2017-08-16T02:18:06.386Z,971.9
2017-08-16T02:19:08.047Z,971.9
2017-08-16T02:20:09.709Z,971.9
2017-08-16T02:21:11.356Z,971.9
2017-08-16T02:22:13.018Z,972.0
2017-08-16T02:23:14.691Z,972.0
2017-08-16T02:24:16.350Z,971.9
2017-08-16T02:25:18.010Z,972.0
2017-08-16T02:26:19.682Z,971.9
2017-08-16T02:27:21.340Z,971.9
2017-08-16T02:28:23.002Z,972.0
2017-08-16T02:29:24.663Z,972.0
2017-08-16T02:30:26.331Z,972.0
2017-08-16T02:31:27.990Z,972.0
2017-08-16T02:32:29.648Z,972.0
2017-08-16T02:33:31.319Z,971.9
2017-08-16T02:34:32.978Z,971.9
2017-08-16T02:35:34.649Z,971.9
2017-08-16T02:36:36.313Z,971.9
2017-08-16T02:37:37.972Z,971.9
2017-08-16T02:38:39.654Z,971.9
2017-08-16T02:39:41.308Z,971.9
2017-08-16T02:40:42.973Z,971.9
2017-08-16T02:41:44.636Z,971.9
2017-08-16T02:42:46.292Z,972.0
2017-08-16T02:43:47.958Z,972.0
2017-08-16T02:44:49.614Z,972.0
2017-08-16T02:45:51.303Z,972.0
2017-08-16T02:46:52.959Z,972.0
2017-08-16T02:47:54.626Z,972.0
2017-08-16T02:48:56.287Z,972.0
2017-08-16T02:49:57.947Z,972.1
2017-08-16T02:50:59.609Z,972.1
2017-08-16T02:52:01.277Z,972.1
2017-08-16T02:53:02.940Z,972.0
2017-08-16T02:54:04.603Z,972.1
2017-08-16T02:55:06.280Z,972.1
2017-08-16T02:56:07.940Z,972.1
2017-08-16T02:57:09.599Z,972.1
2017-08-16T02:58:11.269Z,972.2
2017-08-16T02:59:12.933Z,972.1
2017-08-16T03:00:14.601Z,972.2
2017-08-16T03:01:16.262Z,972.1
2017-08-16T03:02:17.925Z,972.1
2017-08-16T03:03:19.579Z,972.1
2017-08-16T03:04:21.240Z,972.2
2017-08-16T03:05:22.906Z,972.1
2017-08-16T03:06:24.567Z,972.1
2017-08-16T03:07:26.229Z,972.2
2017-08-16T03:08:27.888Z,972.2
2017-08-16T03:09:29.548Z,972.2
2017-08-16T03:10:31.213Z,972.2
2017-08-16T03:11:32.875Z,972.2
2017-08-16T03:12:34.561Z,972.2
2017-08-16T03:13:36.192Z,972.2
2017-08-16T03:14:37.861Z,972.2
2017-08-16T03:15:39.524Z,972.2
2017-08-16T03:16:41.186Z,972.2
2017-08-16T03:17:42.852Z,972.2
2017-08-16T03:18:44.516Z,972.2
2017-08-16T03:19:46.169Z,972.1
2017-08-16T03:20:47.831Z,972.1
2017-08-16T03:21:49.496Z,972.1
2017-08-16T03:22:51.158Z,972.2
2017-08-16T03:23:52.815Z,972.1
2017-08-16T03:24:54.470Z,972.2
2017-08-16T03:25:56.143Z,972.2
2017-08-16T03:26:57.805Z,972.1
2017-08-16T03:27:59.465Z,972.2
2017-08-16T03:29:01.128Z,972.2
2017-08-16T03:30:02.779Z,972.1
2017-08-16T03:31:04.443Z,972.1
2017-08-16T03:32:06.098Z,972.1
2017-08-16T03:33:07.761Z,972.1
2017-08-16T03:34:09.424Z,972.1
2017-08-16T03:35:11.083Z,972.2
2017-08-16T03:36:12.770Z,972.2
2017-08-16T03:37:14.403Z,972.2
2017-08-16T03:38:16.064Z,972.2
2017-08-16T03:39:17.735Z,972.2
2017-08-16T03:40:19.393Z,972.2
2017-08-16T03:41:21.050Z,972.2
2017-08-16T03:42:22.709Z,972.2
2017-08-16T03:43:24.375Z,972.2
2017-08-16T03:44:26.044Z,972.3
2017-08-16T03:45:27.721Z,972.3
2017-08-16T03:46:29.378Z,972.3
2017-08-16T03:47:31.036Z,972.3
2017-08-16T03:48:32.701Z,972.4
2017-08-16T03:49:34.369Z,972.4
2017-08-16T03:50:36.025Z,972.4
2017-08-16T03:51:37.685Z,972.4
2017-08-16T03:52:39.341Z,972.4
2017-08-16T03:53:41.003Z,972.4
2017-08-16T03:54:42.701Z,972.5
2017-08-16T03:55:44.363Z,972.5
2017-08-16T03:56:46.024Z,972.5
2017-08-16T03:57:47.692Z,972.5
2017-08-16T03:58:49.351Z,972.5
2017-08-16T03:59:51.014Z,972.5
2017-08-16T04:00:52.675Z,972.5
2017-08-16T04:01:54.341Z,972.6
2017-08-16T04:02:56.003Z,972.6
2017-08-16T04:03:57.669Z,972.6
2017-08-16T04:04:59.331Z,972.6
2017-08-16T04:06:00.991Z,972.6
2017-08-16T04:07:02.649Z,972.6
2017-08-16T04:08:04.315Z,972.7
2017-08-16T04:09:05.986Z,972.6
2017-08-16T04:10:07.661Z,972.7
2017-08-16T04:11:09.328Z,972.7
2017-08-16T04:12:10.994Z,972.7
2017-08-16T04:13:12.742Z,972.7
2017-08-16T04:14:14.410Z,972.7
2017-08-16T04:15:16.062Z,972.8
2017-08-16T04:16:17.729Z,972.8
2017-08-16T04:17:19.392Z,972.7
2017-08-16T04:18:21.058Z,972.7
2017-08-16T04:19:22.724Z,972.7
2017-08-16T04:20:24.385Z,972.7
2017-08-16T04:21:26.078Z,972.7
2017-08-16T04:22:27.760Z,972.8
2017-08-16T04:23:29.419Z,972.7
2017-08-16T04:24:31.085Z,972.7
2017-08-16T04:25:32.744Z,972.7
2017-08-16T04:26:34.415Z,972.7
2017-08-16T04:27:36.075Z,972.7
2017-08-16T04:28:37.741Z,972.8
2017-08-16T04:29:39.400Z,972.8
2017-08-16T04:30:41.067Z,972.8
2017-08-16T04:31:42.732Z,972.9
2017-08-16T04:32:44.398Z,972.8
2017-08-16T04:33:46.061Z,972.8
2017-08-16T04:34:47.724Z,972.9
2017-08-16T04:35:49.393Z,972.8
2017-08-16T04:36:51.064Z,972.8
2017-08-16T04:37:52.764Z,972.9
2017-08-16T04:38:54.429Z,972.9
2017-08-16T04:39:56.102Z,972.9
2017-08-16T04:40:57.767Z,972.9
2017-08-16T04:41:59.430Z,972.9
2017-08-16T04:43:01.091Z,972.9
2017-08-16T04:44:02.783Z,972.9
2017-08-16T04:45:04.422Z,972.9
2017-08-16T04:46:06.096Z,972.9
2017-08-16T04:47:07.768Z,972.9
2017-08-16T04:48:09.438Z,973.0
2017-08-16T04:49:11.106Z,973.0
2017-08-16T04:50:12.767Z,973.0
2017-08-16T04:51:14.432Z,973.0
2017-08-16T04:52:16.093Z,973.1
2017-08-16T04:53:17.759Z,973.0
2017-08-16T04:54:19.427Z,973.0
2017-08-16T04:55:21.103Z,973.0
2017-08-16T04:56:22.774Z,973.0
2017-08-16T04:57:24.452Z,973.0
2017-08-16T04:58:26.113Z,973.0
2017-08-16T04:59:27.781Z,973.0
2017-08-16T05:00:29.450Z,973.1
2017-08-16T05:01:31.114Z,973.1
2017-08-16T05:02:32.790Z,973.1
2017-08-16T05:03:34.457Z,973.2
2017-08-16T05:04:36.133Z,973.1
2017-08-16T05:05:37.791Z,973.2
2017-08-16T05:06:39.456Z,973.2
2017-08-16T05:07:41.130Z,973.2
2017-08-16T05:08:42.796Z,973.2
2017-08-16T05:09:44.463Z,973.3
2017-08-16T05:10:46.128Z,973.2
2017-08-16T05:11:47.812Z,973.2
2017-08-16T05:12:49.466Z,973.2
2017-08-16T05:13:51.135Z,973.2
2017-08-16T05:14:52.802Z,973.3
2017-08-16T05:15:54.474Z,973.2
2017-08-16T05:16:56.140Z,973.3
2017-08-16T05:17:57.802Z,973.4
2017-08-16T05:18:59.486Z,973.3
2017-08-16T05:20:01.148Z,973.3
2017-08-16T05:21:02.820Z,973.3
2017-08-16T05:22:04.489Z,973.4
2017-08-16T05:23:06.156Z,973.3
2017-08-16T05:24:07.822Z,973.4
2017-08-16T05:25:09.481Z,973.4
2017-08-16T05:26:11.150Z,973.4
2017-08-16T05:27:12.820Z,973.4
2017-08-16T05:28:14.481Z,973.4
2017-08-16T05:29:16.152Z,973.5
2017-08-16T05:30:17.833Z,973.5
2017-08-16T05:31:19.492Z,973.5
2017-08-16T05:32:21.158Z,973.5
2017-08-16T05:33:22.828Z,973.5
2017-08-16T05:34:24.490Z,973.5
2017-08-16T05:35:26.156Z,973.5
2017-08-16T05:36:27.826Z,973.6
2017-08-16T05:37:29.492Z,973.6
2017-08-16T05:38:31.167Z,973.7
2017-08-16T05:39:32.829Z,973.7
2017-08-16T05:40:34.500Z,973.7
2017-08-16T05:41:36.166Z,973.8
2017-08-16T05:42:37.836Z,973.7
2017-08-16T05:43:39.509Z,973.8
2017-08-16T05:44:41.174Z,973.8
2017-08-16T05:45:42.835Z,973.8
2017-08-16T05:46:44.498Z,973.8
2017-08-16T05:47:46.160Z,973.8
2017-08-16T05:48:47.825Z,973.8
2017-08-16T05:49:49.492Z,973.8
2017-08-16T05:50:51.161Z,973.8
2017-08-16T05:51:52.827Z,973.8
2017-08-16T05:52:54.505Z,973.8
2017-08-16T05:53:56.172Z,973.9
2017-08-16T05:54:58.115Z,973.9
2017-08-16T05:55:59.776Z,973.9
2017-08-16T05:57:01.465Z,973.8
2017-08-16T05:58:03.131Z,973.8
2017-08-16T05:59:04.802Z,973.9
2017-08-16T06:00:06.484Z,973.9
2017-08-16T06:01:08.147Z,973.9
2017-08-16T06:02:09.816Z,973.9
2017-08-16T06:03:11.487Z,973.9
2017-08-16T06:04:13.159Z,973.9
2017-08-16T06:05:14.829Z,973.9
2017-08-16T06:06:16.503Z,973.9
2017-08-16T06:07:18.195Z,973.9
2017-08-16T06:08:19.862Z,974.0
2017-08-16T06:09:21.533Z,973.9
2017-08-16T06:10:23.202Z,974.0
2017-08-16T06:11:24.883Z,974.0
2017-08-16T06:12:26.552Z,974.0
2017-08-16T06:13:28.224Z,974.0
2017-08-16T06:14:29.892Z,974.1
2017-08-16T06:15:31.564Z,974.0
2017-08-16T06:16:33.230Z,974.1
2017-08-16T06:17:34.903Z,974.1
2017-08-16T06:18:36.574Z,974.1
2017-08-16T06:19:38.242Z,974.2
2017-08-16T06:20:39.923Z,974.2
2017-08-16T06:21:41.597Z,974.1
2017-08-16T06:22:43.267Z,974.2
2017-08-16T06:23:44.938Z,974.2
2017-08-16T06:24:46.610Z,974.1
2017-08-16T06:25:48.280Z,974.1
2017-08-16T06:26:49.952Z,974.1
2017-08-16T06:27:51.624Z,974.2
2017-08-16T06:28:53.298Z,974.2
2017-08-16T06:29:54.974Z,974.2
2017-08-16T06:30:56.646Z,974.2
2017-08-16T06:31:58.320Z,974.2
2017-08-16T06:32:59.993Z,974.2
2017-08-16T06:34:01.662Z,974.3
2017-08-16T06:35:03.345Z,974.3
2017-08-16T06:36:05.020Z,974.3
2017-08-16T06:37:06.693Z,974.3
2017-08-16T06:38:08.350Z,974.3
2017-08-16T06:39:10.024Z,974.2
2017-08-16T06:40:11.700Z,974.3
2017-08-16T06:41:13.382Z,974.3
2017-08-16T06:42:15.062Z,974.3
2017-08-16T06:43:16.737Z,974.3
2017-08-16T06:44:18.440Z,974.3
2017-08-16T06:45:20.313Z,974.3
2017-08-16T06:46:21.984Z,974.3
2017-08-16T06:47:23.653Z,974.2
2017-08-16T06:48:25.324Z,974.2
2017-08-16T06:49:27.002Z,974.2
2017-08-16T06:51:43.227Z,974.2
2017-08-16T06:52:45.094Z,974.3
2017-08-16T06:53:46.828Z,974.3
2017-08-16T06:54:48.620Z,974.3
2017-08-16T06:55:50.299Z,974.4
2017-08-16T06:56:51.973Z,974.4
2017-08-16T06:57:53.645Z,974.3
2017-08-16T06:59:03.426Z,974.3
2017-08-16T07:00:05.126Z,974.3
2017-08-16T07:01:09.053Z,974.3
2017-08-16T07:02:10.729Z,974.3
2017-08-16T07:03:16.484Z,974.3
2017-08-16T07:04:18.159Z,974.2
2017-08-16T07:05:19.830Z,974.4
2017-08-16T07:06:21.495Z,974.4
2017-08-16T07:07:23.439Z,974.4
2017-08-16T07:08:25.109Z,974.5
2017-08-16T07:09:26.778Z,974.4
2017-08-16T07:10:28.450Z,974.4
2017-08-16T07:11:30.132Z,974.3
2017-08-16T07:12:31.807Z,974.3
2017-08-16T07:13:33.477Z,974.3
2017-08-16T07:14:35.157Z,974.3
2017-08-16T07:15:36.837Z,974.4
2017-08-16T07:16:38.512Z,974.3
2017-08-16T07:17:40.192Z,974.3
2017-08-16T07:18:41.866Z,974.3
2017-08-16T07:19:43.551Z,974.4
2017-08-16T07:20:45.214Z,974.4
2017-08-16T07:21:46.890Z,974.5
2017-08-16T07:22:48.570Z,974.5
2017-08-16T07:23:50.251Z,974.5
2017-08-16T07:24:51.931Z,974.5
2017-08-16T07:25:53.608Z,974.5
2017-08-16T07:26:55.290Z,974.5
2017-08-16T07:27:56.962Z,974.5
2017-08-16T07:28:58.637Z,974.5
2017-08-16T07:30:00.317Z,974.5
2017-08-16T07:31:01.994Z,974.5
2017-08-16T07:32:03.674Z,974.5
2017-08-16T07:33:05.346Z,974.5
2017-08-16T07:34:07.026Z,974.6
2017-08-16T07:35:08.752Z,974.6
2017-08-16T07:36:10.428Z,974.6
2017-08-16T07:37:12.102Z,974.5
2017-08-16T07:38:13.793Z,974.5
2017-08-16T07:39:15.468Z,974.5
2017-08-16T07:40:17.150Z,974.4
2017-08-16T07:41:18.851Z,974.4
2017-08-16T07:42:20.542Z,974.4
2017-08-16T07:43:22.225Z,974.6
2017-08-16T07:44:23.926Z,974.6
2017-08-16T07:45:25.592Z,974.7
2017-08-16T07:46:27.266Z,974.7
2017-08-16T07:47:28.948Z,974.7
2017-08-16T07:48:30.632Z,974.6
2017-08-16T07:49:32.309Z,974.8
2017-08-16T07:50:33.988Z,974.9
2017-08-16T07:51:35.673Z,974.9
2017-08-16T07:52:37.352Z,974.9
2017-08-16T07:53:39.028Z,974.9
2017-08-16T07:54:40.710Z,974.8
2017-08-16T07:55:42.390Z,974.8
2017-08-16T07:56:44.077Z,974.7
2017-08-16T07:57:45.764Z,974.7
2017-08-16T07:58:47.450Z,974.7
2017-08-16T07:59:49.127Z,974.7
2017-08-16T08:00:50.807Z,974.7
2017-08-16T08:01:52.480Z,974.7
2017-08-16T08:02:54.165Z,974.6
2017-08-16T08:03:55.839Z,974.6
2017-08-16T08:04:57.513Z,974.7
2017-08-16T08:05:59.196Z,974.8
2017-08-16T08:07:00.875Z,974.6
2017-08-16T08:08:02.554Z,974.6
2017-08-16T08:09:04.240Z,974.6
2017-08-16T08:10:05.912Z,974.6
2017-08-16T08:11:07.583Z,974.6
2017-08-16T08:12:09.260Z,974.6
2017-08-16T08:13:11.008Z,974.6
2017-08-16T08:14:12.685Z,974.7
2017-08-16T08:15:14.360Z,974.7
2017-08-16T08:16:16.039Z,974.8
2017-08-16T08:17:17.712Z,974.8
2017-08-16T08:18:19.385Z,974.8
2017-08-16T08:19:21.062Z,974.8
2017-08-16T08:20:22.775Z,974.8
2017-08-16T08:21:24.578Z,974.8
2017-08-16T08:22:26.261Z,974.8
2017-08-16T08:23:27.936Z,974.8
2017-08-16T08:24:29.604Z,974.9
2017-08-16T08:25:31.279Z,975.0
2017-08-16T08:26:32.952Z,975.3
2017-08-16T08:27:34.628Z,975.3
2017-08-16T08:28:36.308Z,975.2
2017-08-16T08:29:37.985Z,975.2
2017-08-16T08:30:39.659Z,975.2
2017-08-16T08:31:41.343Z,975.2
2017-08-16T08:32:43.023Z,975.1
2017-08-16T08:33:44.686Z,975.1
2017-08-16T08:34:46.365Z,975.1
2017-08-16T08:35:48.042Z,975.1
2017-08-16T08:36:49.722Z,975.0
2017-08-16T08:37:51.396Z,975.0
2017-08-16T08:38:53.091Z,975.0
2017-08-16T08:39:54.755Z,975.0
2017-08-16T08:40:56.443Z,975.0
2017-08-16T08:41:58.156Z,974.8
2017-08-16T08:42:59.821Z,974.9
2017-08-16T08:44:01.887Z,974.8
2017-08-16T08:45:03.571Z,974.9
2017-08-16T08:46:05.249Z,974.8
2017-08-16T08:47:06.929Z,974.8
2017-08-16T08:48:08.613Z,974.8
2017-08-16T08:49:10.290Z,974.8
2017-08-16T08:50:11.969Z,974.8
2017-08-16T08:51:13.654Z,975.0
2017-08-16T08:52:15.356Z,975.0
2017-08-16T08:53:17.036Z,975.0
2017-08-16T08:54:18.731Z,975.0
2017-08-16T08:55:20.399Z,975.1
2017-08-16T08:56:22.071Z,975.0
2017-08-16T08:57:23.750Z,975.0
2017-08-16T08:58:25.428Z,975.0
2017-08-16T08:59:27.111Z,975.0
2017-08-16T09:00:28.788Z,975.0
2017-08-16T09:01:30.474Z,975.0
2017-08-16T09:02:32.150Z,975.1
2017-08-16T09:03:33.829Z,975.1
2017-08-16T09:04:35.507Z,975.2
2017-08-16T09:05:37.192Z,975.1
2017-08-16T09:06:39.290Z,975.1
2017-08-16T09:07:40.987Z,975.0
2017-08-16T09:08:42.661Z,975.0
2017-08-16T09:09:44.357Z,975.0
2017-08-16T09:10:46.024Z,975.1
2017-08-16T09:11:47.704Z,975.2
2017-08-16T09:12:50.787Z,975.2
2017-08-16T09:13:52.466Z,975.2
2017-08-16T09:14:54.155Z,975.2
2017-08-16T09:15:55.838Z,975.4
2017-08-16T09:16:57.522Z,975.3
2017-08-16T09:17:59.197Z,975.3
2017-08-16T09:19:00.880Z,975.4
2017-08-16T09:20:02.625Z,975.3
2017-08-16T09:21:04.320Z,975.3
2017-08-16T09:22:06.008Z,975.2
2017-08-16T09:23:07.705Z,975.2
2017-08-16T09:24:09.421Z,975.2
2017-08-16T09:25:11.132Z,975.2
2017-08-16T09:26:12.915Z,975.2
2017-08-16T09:27:14.589Z,975.1
2017-08-16T09:28:16.289Z,975.2
2017-08-16T09:29:17.986Z,975.2
2017-08-16T09:30:20.368Z,975.1
2017-08-16T09:31:22.044Z,975.0
2017-08-16T09:32:23.726Z,975.0
2017-08-16T09:33:25.410Z,974.9
2017-08-16T09:34:27.099Z,975.0
2017-08-16T09:35:28.781Z,975.0
2017-08-16T09:36:30.483Z,974.9
2017-08-16T09:37:32.169Z,974.8
2017-08-16T09:38:33.860Z,974.8
2017-08-16T09:39:35.533Z,974.8
2017-08-16T09:40:37.234Z,974.8
2017-08-16T09:41:38.909Z,974.8
2017-08-16T09:42:40.588Z,974.8
2017-08-16T09:43:42.279Z,974.8
2017-08-16T09:44:43.957Z,974.8
2017-08-16T09:45:45.644Z,974.8
2017-08-16T09:46:47.317Z,974.8
2017-08-16T09:47:49.003Z,974.8
2017-08-16T09:48:50.692Z,975.0
2017-08-16T09:49:52.378Z,975.0
2017-08-16T09:50:54.061Z,975.0
2017-08-16T09:51:55.738Z,975.0
2017-08-16T09:52:57.417Z,975.0
2017-08-16T09:53:59.099Z,975.0
2017-08-16T09:55:00.782Z,975.0
2017-08-16T09:56:02.479Z,975.0
2017-08-16T09:57:04.155Z,975.0
2017-08-16T09:58:05.841Z,975.0
2017-08-16T09:59:07.548Z,974.9
2017-08-16T10:00:09.228Z,974.9
2017-08-16T10:01:10.912Z,975.0
2017-08-16T10:02:12.593Z,975.0
2017-08-16T10:03:14.279Z,975.0
2017-08-16T10:04:15.960Z,975.1
2017-08-16T10:05:18.751Z,975.2
2017-08-16T10:06:20.438Z,975.2
2017-08-16T10:07:22.123Z,975.2
2017-08-16T10:08:24.334Z,975.2
2017-08-16T10:09:26.024Z,975.2
2017-08-16T10:10:27.714Z,975.1
2017-08-16T10:11:29.397Z,975.1
2017-08-16T10:12:31.100Z,975.1
2017-08-16T10:13:32.785Z,975.1
2017-08-16T10:14:34.467Z,975.1
2017-08-16T10:15:36.158Z,975.1
2017-08-16T10:16:37.845Z,975.1
2017-08-16T10:17:39.536Z,975.2
2017-08-16T10:18:41.223Z,975.2
2017-08-16T10:19:42.904Z,975.2
2017-08-16T10:20:44.591Z,975.2
2017-08-16T10:21:46.288Z,975.2
2017-08-16T10:22:47.974Z,975.2
2017-08-16T10:23:49.662Z,975.1
2017-08-16T10:24:51.378Z,975.0
2017-08-16T10:25:53.066Z,975.0
2017-08-16T10:26:54.758Z,975.0
2017-08-16T10:27:56.452Z,975.0
2017-08-16T10:28:58.137Z,975.0
2017-08-16T10:29:59.837Z,975.1
2017-08-16T10:31:01.527Z,975.0
2017-08-16T10:32:03.216Z,975.0
2017-08-16T10:33:04.908Z,975.0
2017-08-16T10:34:06.654Z,975.0
2017-08-16T10:35:08.663Z,975.0
2017-08-16T10:36:10.290Z,975.0
2017-08-16T10:37:11.982Z,975.0
2017-08-16T10:38:13.673Z,975.1
2017-08-16T10:39:15.375Z,975.1
2017-08-16T10:40:17.065Z,974.9
2017-08-16T10:41:18.750Z,975.0
2017-08-16T10:42:20.443Z,975.1
2017-08-16T10:43:22.127Z,975.1
2017-08-16T10:44:23.809Z,975.0
2017-08-16T10:45:25.501Z,975.0
2017-08-16T10:46:27.388Z,975.0
2017-08-16T10:47:29.091Z,975.0
2017-08-16T10:48:30.780Z,975.0
2017-08-16T10:49:32.492Z,974.9
2017-08-16T10:50:34.158Z,975.0
2017-08-16T10:51:36.016Z,975.0
2017-08-16T10:52:37.764Z,975.0
2017-08-16T10:53:39.486Z,975.0
2017-08-16T10:54:41.185Z,974.8
2017-08-16T10:55:42.985Z,974.8
2017-08-16T10:56:44.671Z,974.8
2017-08-16T10:57:47.511Z,974.7
2017-08-16T10:58:49.197Z,974.8
2017-08-16T10:59:51.619Z,974.7
2017-08-16T11:00:52.705Z,974.8
2017-08-16T11:01:54.398Z,974.7
2017-08-16T11:02:56.142Z,974.5
2017-08-16T11:03:58.054Z,974.7
2017-08-16T11:04:59.738Z,974.6
2017-08-16T11:06:01.440Z,974.6
2017-08-16T11:07:03.438Z,974.7
2017-08-16T11:08:05.130Z,974.7
2017-08-16T11:09:06.821Z,974.6
2017-08-16T11:10:08.507Z,974.6
2017-08-16T11:11:10.189Z,974.6
2017-08-16T11:12:11.872Z,974.8
2017-08-16T11:13:13.553Z,974.9
2017-08-16T11:14:15.242Z,974.9
2017-08-16T11:15:16.927Z,974.9
2017-08-16T11:16:18.610Z,974.9
2017-08-16T11:17:20.308Z,974.9
2017-08-16T11:18:21.983Z,974.8
2017-08-16T11:19:23.658Z,974.8
2017-08-16T11:20:25.348Z,974.8
2017-08-16T11:21:27.031Z,974.9
2017-08-16T11:22:28.714Z,974.8
2017-08-16T11:23:30.397Z,974.8
2017-08-16T11:24:32.090Z,974.8
2017-08-16T11:25:33.777Z,974.8
2017-08-16T11:26:35.479Z,974.7
2017-08-16T11:27:37.173Z,974.8
2017-08-16T11:28:38.847Z,974.8
2017-08-16T11:29:40.538Z,975.0
2017-08-16T11:30:42.224Z,974.8
2017-08-16T11:31:43.909Z,975.1
2017-08-16T11:32:45.685Z,975.0
2017-08-16T11:33:47.366Z,974.9
2017-08-16T11:34:49.061Z,974.8
2017-08-16T11:35:50.813Z,975.0
2017-08-16T11:36:52.550Z,974.9
2017-08-16T11:37:55.370Z,974.9
2017-08-16T11:38:57.053Z,974.9
2017-08-16T11:39:58.731Z,974.9
2017-08-16T11:41:00.464Z,974.9
2017-08-16T11:42:02.159Z,974.9
2017-08-16T11:43:03.844Z,974.8
2017-08-16T11:44:05.525Z,974.8
2017-08-16T11:45:09.087Z,974.7
2017-08-16T11:46:10.764Z,974.9
2017-08-16T11:47:12.456Z,975.0
2017-08-16T11:48:14.202Z,975.0
2017-08-16T11:49:15.893Z,975.1
2017-08-16T11:50:17.625Z,975.2
2017-08-16T11:51:19.319Z,975.1
2017-08-16T11:52:20.991Z,975.1
2017-08-16T11:53:22.678Z,975.0
2017-08-16T11:54:24.384Z,974.9
2017-08-16T11:55:26.079Z,974.8
2017-08-16T11:56:27.770Z,974.9
2017-08-16T11:57:29.456Z,974.8
2017-08-16T11:58:31.145Z,974.9
2017-08-16T11:59:32.828Z,974.9
2017-08-16T12:00:34.514Z,974.9
2017-08-16T12:01:36.261Z,974.8
2017-08-16T12:02:37.942Z,974.8
2017-08-16T12:03:39.645Z,974.8
2017-08-16T12:04:41.338Z,974.7
2017-08-16T12:05:43.022Z,974.6
2017-08-16T12:06:44.871Z,974.8
2017-08-16T12:07:46.560Z,974.7
2017-08-16T12:08:48.247Z,974.7
2017-08-16T12:09:49.943Z,974.7
2017-08-16T12:10:51.623Z,974.7
2017-08-16T12:11:53.329Z,974.7
2017-08-16T12:12:55.008Z,974.6
2017-08-16T12:13:56.698Z,974.5
2017-08-16T12:14:58.394Z,974.4
2017-08-16T12:16:00.077Z,974.5
2017-08-16T12:17:01.761Z,974.5
2017-08-16T12:18:03.438Z,974.6
2017-08-16T12:19:05.249Z,974.7
2017-08-16T12:20:06.934Z,974.7
2017-08-16T12:21:08.620Z,974.7
2017-08-16T12:22:10.333Z,974.8
2017-08-16T12:23:12.023Z,974.8
2017-08-16T12:24:13.720Z,974.7
2017-08-16T12:25:15.405Z,974.7
2017-08-16T12:26:17.089Z,974.5
2017-08-16T12:27:18.770Z,974.7
2017-08-16T12:28:20.463Z,974.8
2017-08-16T12:29:22.157Z,974.8
2017-08-16T12:30:23.835Z,974.8
2017-08-16T12:31:25.520Z,974.8
2017-08-16T12:32:27.206Z,974.8
2017-08-16T12:33:28.894Z,974.9
2017-08-16T12:34:30.587Z,974.8
2017-08-16T12:35:32.266Z,974.7
2017-08-16T12:36:33.956Z,974.8
2017-08-16T12:37:35.640Z,974.8
2017-08-16T12:38:37.318Z,974.8
2017-08-16T12:39:39.001Z,974.6
2017-08-16T12:40:40.689Z,974.5
2017-08-16T12:41:42.373Z,974.4
2017-08-16T12:42:44.065Z,974.4
2017-08-16T12:43:45.827Z,974.3
2017-08-16T12:44:47.501Z,974.3
2017-08-16T12:45:49.210Z,974.4
2017-08-16T12:46:50.901Z,974.3
2017-08-16T12:47:52.581Z,974.3
2017-08-16T12:48:54.260Z,974.3
2017-08-16T12:49:55.966Z,974.3
2017-08-16T12:50:57.630Z,974.3
2017-08-16T12:51:59.307Z,974.4
2017-08-16T12:53:00.991Z,974.4
2017-08-16T12:54:02.992Z,974.5
2017-08-16T12:55:05.026Z,974.6
2017-08-16T12:56:06.512Z,974.4
2017-08-16T12:57:09.402Z,974.4
2017-08-16T12:58:11.126Z,974.5
2017-08-16T12:59:12.837Z,974.6
2017-08-16T13:00:15.823Z,974.3
2017-08-16T13:01:17.484Z,974.3
2017-08-16T13:02:19.477Z,974.3
2017-08-16T13:03:21.314Z,974.3
2017-08-16T13:04:23.146Z,974.3
2017-08-16T13:05:25.024Z,974.4
2017-08-16T13:06:26.698Z,975.0
2017-08-16T13:07:29.162Z,975.1
2017-08-16T13:08:30.855Z,975.2
2017-08-16T13:09:32.528Z,974.9
2017-08-16T13:10:34.212Z,975.2
2017-08-16T13:11:36.986Z,975.1
2017-08-16T13:12:38.661Z,974.9
2017-08-16T13:13:40.344Z,974.6
2017-08-16T13:14:46.116Z,974.6
2017-08-16T13:15:48.894Z,974.5